sensor_id;sensor_type;location;lat;lon;timestamp;pressure;altitude;pressure_sealevel;temperature;humidity
76074;BME280;64776;42.636;24.358;2023-11-19T00:00:23;89653.38;;;-1.17;92.21
76074;BME280;64776;42.636;24.358;2023-11-19T00:03:25;89642.00;;;-1.11;91.57
76074;BME280;64776;42.636;24.358;2023-11-19T00:06:26;89630.06;;;-1.12;91.78
76074;BME280;64776;42.636;24.358;2023-11-19T00:09:26;89640.44;;;-1.08;91.36
76074;BME280;64776;42.636;24.358;2023-11-19T00:12:27;89654.34;;;-1.11;91.06
76074;BME280;64776;42.636;24.358;2023-11-19T00:15:28;89660.91;;;-1.03;91.12
76074;BME280;64776;42.636;24.358;2023-11-19T00:18:30;89646.81;;;-1.09;91.16
76074;BME280;64776;42.636;24.358;2023-11-19T00:21:31;89661.97;;;-1.17;92.83
76074;BME280;64776;42.636;24.358;2023-11-19T00:24:32;89629.59;;;-1.23;92.66
76074;BME280;64776;42.636;24.358;2023-11-19T00:27:32;89658.63;;;-1.17;92.17
76074;BME280;64776;42.636;24.358;2023-11-19T00:30:33;89660.19;;;-1.20;92.40
76074;BME280;64776;42.636;24.358;2023-11-19T00:33:35;89664.03;;;-1.24;93.35
76074;BME280;64776;42.636;24.358;2023-11-19T00:36:36;89663.94;;;-1.21;93.44
76074;BME280;64776;42.636;24.358;2023-11-19T00:39:37;89668.75;;;-1.19;93.58
76074;BME280;64776;42.636;24.358;2023-11-19T00:42:37;89660.09;;;-1.16;93.11
76074;BME280;64776;42.636;24.358;2023-11-19T00:45:38;89659.88;;;-1.22;93.48
76074;BME280;64776;42.636;24.358;2023-11-19T00:48:40;89659.03;;;-1.19;93.09
76074;BME280;64776;42.636;24.358;2023-11-19T00:51:41;89674.31;;;-1.17;92.62
76074;BME280;64776;42.636;24.358;2023-11-19T00:54:42;89682.16;;;-1.17;93.54
76074;BME280;64776;42.636;24.358;2023-11-19T00:57:43;89680.38;;;-1.20;94.18
76074;BME280;64776;42.636;24.358;2023-11-19T01:00:43;89676.13;;;-1.30;95.41
76074;BME280;64776;42.636;24.358;2023-11-19T01:03:46;89686.50;;;-1.27;94.29
76074;BME280;64776;42.636;24.358;2023-11-19T01:06:46;89675.97;;;-1.23;94.50
76074;BME280;64776;42.636;24.358;2023-11-19T01:09:47;89683.34;;;-1.34;95.81
76074;BME280;64776;42.636;24.358;2023-11-19T01:12:48;89688.06;;;-1.29;96.13
76074;BME280;64776;42.636;24.358;2023-11-19T01:15:49;89675.56;;;-1.38;96.27
76074;BME280;64776;42.636;24.358;2023-11-19T01:18:51;89672.47;;;-1.33;95.89
76074;BME280;64776;42.636;24.358;2023-11-19T01:21:52;89676.78;;;-1.26;94.16
76074;BME280;64776;42.636;24.358;2023-11-19T01:24:53;89681.69;;;-1.28;94.50
76074;BME280;64776;42.636;24.358;2023-11-19T01:27:54;89678.75;;;-1.30;95.31
76074;BME280;64776;42.636;24.358;2023-11-19T01:30:54;89681.84;;;-1.19;94.17
76074;BME280;64776;42.636;24.358;2023-11-19T01:33:57;89688.00;;;-1.26;94.65
76074;BME280;64776;42.636;24.358;2023-11-19T01:36:57;89687.25;;;-1.26;94.15
76074;BME280;64776;42.636;24.358;2023-11-19T01:39:58;89692.16;;;-1.28;95.18
76074;BME280;64776;42.636;24.358;2023-11-19T01:42:59;89679.88;;;-1.31;95.33
76074;BME280;64776;42.636;24.358;2023-11-19T01:46:00;89694.13;;;-1.32;95.49
76074;BME280;64776;42.636;24.358;2023-11-19T01:49:02;89684.31;;;-1.28;93.03
76074;BME280;64776;42.636;24.358;2023-11-19T01:52:05;89695.09;;;-1.26;93.67
76074;BME280;64776;42.636;24.358;2023-11-19T01:55:07;89698.78;;;-1.24;94.30
76074;BME280;64776;42.636;24.358;2023-11-19T02:10:14;89704.34;;;-1.22;93.64
76074;BME280;64776;42.636;24.358;2023-11-19T02:13:15;89701.47;;;-1.27;94.20
76074;BME280;64776;42.636;24.358;2023-11-19T02:16:16;89694.78;;;-1.28;94.39
76074;BME280;64776;42.636;24.358;2023-11-19T02:19:19;89693.38;;;-1.33;94.60
76074;BME280;64776;42.636;24.358;2023-11-19T02:22:20;89711.22;;;-1.28;93.92
76074;BME280;64776;42.636;24.358;2023-11-19T02:25:28;89708.84;;;-1.22;94.34
76074;BME280;64776;42.636;24.358;2023-11-19T02:28:31;89704.75;;;-1.23;93.58
76074;BME280;64776;42.636;24.358;2023-11-19T02:31:33;89706.97;;;-1.22;93.29
76074;BME280;64776;42.636;24.358;2023-11-19T02:34:33;89712.44;;;-1.16;94.22
76074;BME280;64776;42.636;24.358;2023-11-19T02:37:34;89723.97;;;-1.14;93.27
76074;BME280;64776;42.636;24.358;2023-11-19T02:40:35;89708.00;;;-1.19;93.56
76074;BME280;64776;42.636;24.358;2023-11-19T02:43:37;89709.81;;;-1.16;93.81
76074;BME280;64776;42.636;24.358;2023-11-19T02:46:38;89709.81;;;-1.16;93.45
76074;BME280;64776;42.636;24.358;2023-11-19T02:49:39;89717.34;;;-1.18;93.46
76074;BME280;64776;42.636;24.358;2023-11-19T02:52:40;89717.03;;;-1.20;93.72
76074;BME280;64776;42.636;24.358;2023-11-19T02:55:41;89706.97;;;-1.22;93.76
76074;BME280;64776;42.636;24.358;2023-11-19T02:58:44;89710.31;;;-1.21;93.10
76074;BME280;64776;42.636;24.358;2023-11-19T03:01:45;89709.50;;;-1.18;93.61
76074;BME280;64776;42.636;24.358;2023-11-19T03:04:45;89722.59;;;-1.18;93.61
76074;BME280;64776;42.636;24.358;2023-11-19T03:07:46;89728.28;;;-1.23;93.65
76074;BME280;64776;42.636;24.358;2023-11-19T03:10:47;89734.19;;;-1.19;93.73
76074;BME280;64776;42.636;24.358;2023-11-19T03:13:49;89735.75;;;-1.22;93.87
76074;BME280;64776;42.636;24.358;2023-11-19T03:16:50;89731.09;;;-1.14;93.47
76074;BME280;64776;42.636;24.358;2023-11-19T03:19:50;89731.09;;;-1.14;92.85
76074;BME280;64776;42.636;24.358;2023-11-19T03:22:51;89731.50;;;-1.16;92.93
76074;BME280;64776;42.636;24.358;2023-11-19T03:25:52;89721.41;;;-1.17;92.75
76074;BME280;64776;42.636;24.358;2023-11-19T03:28:54;89730.03;;;-1.17;93.26
76074;BME280;64776;42.636;24.358;2023-11-19T03:31:55;89724.78;;;-1.17;93.43
76074;BME280;64776;42.636;24.358;2023-11-19T03:34:55;89724.13;;;-1.21;93.62
76074;BME280;64776;42.636;24.358;2023-11-19T03:37:56;89727.41;;;-1.17;93.20
76074;BME280;64776;42.636;24.358;2023-11-19T03:40:57;89713.91;;;-1.15;92.11
76074;BME280;64776;42.636;24.358;2023-11-19T03:43:59;89725.53;;;-1.16;92.73
76074;BME280;64776;42.636;24.358;2023-11-19T03:47:00;89706.13;;;-1.19;92.61
76074;BME280;64776;42.636;24.358;2023-11-19T03:50:01;89723.72;;;-1.19;91.69
76074;BME280;64776;42.636;24.358;2023-11-19T03:53:02;89727.56;;;-1.24;92.31
76074;BME280;64776;42.636;24.358;2023-11-19T03:56:03;89728.22;;;-1.20;92.07
76074;BME280;64776;42.636;24.358;2023-11-19T03:59:06;89723.66;;;-1.16;91.05
76074;BME280;64776;42.636;24.358;2023-11-19T04:02:06;89740.91;;;-1.18;91.71
76074;BME280;64776;42.636;24.358;2023-11-19T04:05:07;89743.84;;;-1.16;90.54
76074;BME280;64776;42.636;24.358;2023-11-19T04:08:08;89741.56;;;-1.14;90.62
76074;BME280;64776;42.636;24.358;2023-11-19T04:11:09;89746.69;;;-1.11;90.79
76074;BME280;64776;42.636;24.358;2023-11-19T04:14:11;89747.22;;;-1.16;91.24
76074;BME280;64776;42.636;24.358;2023-11-19T04:17:12;89774.19;;;-1.19;91.17
76074;BME280;64776;42.636;24.358;2023-11-19T04:20:13;89760.03;;;-1.21;90.72
76074;BME280;64776;42.636;24.358;2023-11-19T04:23:13;89762.97;;;-1.19;90.54
76074;BME280;64776;42.636;24.358;2023-11-19T04:26:14;89763.47;;;-1.24;90.83
76074;BME280;64776;42.636;24.358;2023-11-19T04:29:16;89770.16;;;-1.23;90.68
76074;BME280;64776;42.636;24.358;2023-11-19T04:32:17;89763.81;;;-1.22;90.64
76074;BME280;64776;42.636;24.358;2023-11-19T04:35:18;89743.28;;;-1.24;90.56
76074;BME280;64776;42.636;24.358;2023-11-19T04:38:19;89742.94;;;-1.26;90.56
76074;BME280;64776;42.636;24.358;2023-11-19T04:41:19;89734.78;;;-1.28;90.27
76074;BME280;64776;42.636;24.358;2023-11-19T04:44:21;89732.88;;;-1.27;90.58
76074;BME280;64776;42.636;24.358;2023-11-19T04:47:22;89752.03;;;-1.30;90.34
76074;BME280;64776;42.636;24.358;2023-11-19T04:50:23;89746.03;;;-1.31;90.67
76074;BME280;64776;42.636;24.358;2023-11-19T04:53:24;89761.41;;;-1.33;90.01
76074;BME280;64776;42.636;24.358;2023-11-19T04:56:24;89738.19;;;-1.31;90.39
76074;BME280;64776;42.636;24.358;2023-11-19T04:59:26;89757.09;;;-1.23;89.49
76074;BME280;64776;42.636;24.358;2023-11-19T05:02:27;89753.09;;;-1.28;89.56
76074;BME280;64776;42.636;24.358;2023-11-19T05:05:28;89757.91;;;-1.26;89.49
76074;BME280;64776;42.636;24.358;2023-11-19T05:08:29;89762.00;;;-1.25;89.31
76074;BME280;64776;42.636;24.358;2023-11-19T05:11:29;89753.34;;;-1.22;88.72
76074;BME280;64776;42.636;24.358;2023-11-19T05:14:32;89738.03;;;-1.24;89.20
76074;BME280;64776;42.636;24.358;2023-11-19T05:17:32;89753.66;;;-1.20;88.07
76074;BME280;64776;42.636;24.358;2023-11-19T05:20:33;89752.13;;;-1.18;87.86
76074;BME280;64776;42.636;24.358;2023-11-19T05:23:34;89756.59;;;-1.18;87.97
76074;BME280;64776;42.636;24.358;2023-11-19T05:26:35;89755.06;;;-1.16;87.63
76074;BME280;64776;42.636;24.358;2023-11-19T05:29:37;89762.25;;;-1.20;88.24
76074;BME280;64776;42.636;24.358;2023-11-19T05:32:38;89773.09;;;-1.21;88.59
76074;BME280;64776;42.636;24.358;2023-11-19T05:35:39;89765.59;;;-1.19;88.49
76074;BME280;64776;42.636;24.358;2023-11-19T05:38:40;89778.19;;;-1.14;87.09
76074;BME280;64776;42.636;24.358;2023-11-19T05:41:40;89786.38;;;-1.12;87.51
76074;BME280;64776;42.636;24.358;2023-11-19T05:44:43;89789.41;;;-1.14;88.27
76074;BME280;64776;42.636;24.358;2023-11-19T05:47:43;89781.13;;;-1.12;87.52
76074;BME280;64776;42.636;24.358;2023-11-19T05:50:44;89793.00;;;-1.08;88.17
76074;BME280;64776;42.636;24.358;2023-11-19T05:53:45;89804.88;;;-1.03;86.92
76074;BME280;64776;42.636;24.358;2023-11-19T05:56:47;89796.84;;;-0.96;86.88
76074;BME280;64776;42.636;24.358;2023-11-19T05:59:49;89804.63;;;-0.93;87.20
76074;BME280;64776;42.636;24.358;2023-11-19T06:02:50;89801.34;;;-0.97;86.73
76074;BME280;64776;42.636;24.358;2023-11-19T06:05:51;89824.53;;;-0.95;87.52
76074;BME280;64776;42.636;24.358;2023-11-19T06:08:52;89819.59;;;-0.93;87.99
76074;BME280;64776;42.636;24.358;2023-11-19T06:11:53;89792.13;;;-1.01;88.44
76074;BME280;64776;42.636;24.358;2023-11-19T06:14:55;89799.66;;;-1.03;88.47
76074;BME280;64776;42.636;24.358;2023-11-19T06:17:56;89803.56;;;-0.95;87.27
76074;BME280;64776;42.636;24.358;2023-11-19T06:20:57;89790.53;;;-0.99;87.17
76074;BME280;64776;42.636;24.358;2023-11-19T06:23:58;89808.41;;;-0.94;87.31
76074;BME280;64776;42.636;24.358;2023-11-19T06:26:59;89824.34;;;-0.88;86.54
76074;BME280;64776;42.636;24.358;2023-11-19T06:30:01;89835.81;;;-0.82;87.17
76074;BME280;64776;42.636;24.358;2023-11-19T06:33:02;89817.09;;;-0.80;87.15
76074;BME280;64776;42.636;24.358;2023-11-19T06:36:03;89823.69;;;-0.76;86.64
76074;BME280;64776;42.636;24.358;2023-11-19T06:39:05;89825.81;;;-0.71;86.80
76074;BME280;64776;42.636;24.358;2023-11-19T06:42:06;89829.91;;;-0.70;86.17
76074;BME280;64776;42.636;24.358;2023-11-19T06:45:08;89836.88;;;-0.63;86.06
76074;BME280;64776;42.636;24.358;2023-11-19T06:48:09;89832.47;;;-0.66;85.92
76074;BME280;64776;42.636;24.358;2023-11-19T06:51:10;89835.00;;;-0.63;85.67
76074;BME280;64776;42.636;24.358;2023-11-19T06:54:11;89824.69;;;-0.54;85.43
76074;BME280;64776;42.636;24.358;2023-11-19T06:57:12;89829.28;;;-0.58;85.02
76074;BME280;64776;42.636;24.358;2023-11-19T07:04:12;89847.25;;;-0.28;83.21
76074;BME280;64776;42.636;24.358;2023-11-19T07:07:13;89851.09;;;-0.32;83.54
76074;BME280;64776;42.636;24.358;2023-11-19T07:10:14;89853.16;;;-0.24;82.41
76074;BME280;64776;42.636;24.358;2023-11-19T07:13:15;89844.94;;;-0.10;80.88
76074;BME280;64776;42.636;24.358;2023-11-19T07:16:16;89852.63;;;-0.03;81.87
76074;BME280;64776;42.636;24.358;2023-11-19T07:19:18;89839.19;;;-0.05;81.03
76074;BME280;64776;42.636;24.358;2023-11-19T07:22:19;89868.34;;;-0.03;80.74
76074;BME280;64776;42.636;24.358;2023-11-19T07:25:19;89880.81;;;-0.07;79.76
76074;BME280;64776;42.636;24.358;2023-11-19T07:28:20;89880.81;;;-0.07;80.63
76074;BME280;64776;42.636;24.358;2023-11-19T07:31:21;89877.94;;;0.04;80.29
76074;BME280;64776;42.636;24.358;2023-11-19T07:34:24;89872.81;;;0.13;80.44
76074;BME280;64776;42.636;24.358;2023-11-19T07:37:25;89873.38;;;0.21;79.16
76074;BME280;64776;42.636;24.358;2023-11-19T07:40:25;89878.66;;;0.05;80.38
76074;BME280;64776;42.636;24.358;2023-11-19T07:43:26;89863.56;;;0.09;79.81
76074;BME280;64776;42.636;24.358;2023-11-19T07:58:36;89874.69;;;0.13;79.31
76074;BME280;64776;42.636;24.358;2023-11-19T08:01:57;89864.13;;;0.16;78.56
76074;BME280;64776;42.636;24.358;2023-11-19T08:04:58;89876.97;;;0.27;78.43
76074;BME280;64776;42.636;24.358;2023-11-19T08:07:59;89885.19;;;0.13;79.19
76074;BME280;64776;42.636;24.358;2023-11-19T08:11:00;89880.25;;;0.15;79.33
76074;BME280;64776;42.636;24.358;2023-11-19T08:14:02;89877.47;;;0.22;79.60
76074;BME280;64776;42.636;24.358;2023-11-19T08:17:03;89876.97;;;0.27;79.91
76074;BME280;64776;42.636;24.358;2023-11-19T08:20:06;89886.59;;;0.17;79.82
76074;BME280;64776;42.636;24.358;2023-11-19T08:23:07;89891.41;;;0.19;79.59
76074;BME280;64776;42.636;24.358;2023-11-19T08:26:08;89899.09;;;0.26;80.41
76074;BME280;64776;42.636;24.358;2023-11-19T08:29:10;89897.66;;;0.25;80.16
76074;BME280;64776;42.636;24.358;2023-11-19T08:32:11;89912.28;;;0.38;79.63
76074;BME280;64776;42.636;24.358;2023-11-19T08:35:11;89921.22;;;0.41;78.69
76074;BME280;64776;42.636;24.358;2023-11-19T08:38:12;89911.53;;;0.66;79.08
76074;BME280;64776;42.636;24.358;2023-11-19T08:41:13;89912.72;;;0.78;78.62
76074;BME280;64776;42.636;24.358;2023-11-19T08:44:15;89907.97;;;1.14;77.71
76074;BME280;64776;42.636;24.358;2023-11-19T08:47:16;89906.09;;;1.52;76.18
76074;BME280;64776;42.636;24.358;2023-11-19T08:50:17;89907.63;;;1.88;75.63
76074;BME280;64776;42.636;24.358;2023-11-19T08:53:17;89904.28;;;2.00;74.04
76074;BME280;64776;42.636;24.358;2023-11-19T08:56:18;89918.78;;;1.92;74.96
76074;BME280;64776;42.636;24.358;2023-11-19T08:59:20;89952.69;;;1.77;75.00
76074;BME280;64776;42.636;24.358;2023-11-19T09:02:21;89929.41;;;2.01;74.43
76074;BME280;64776;42.636;24.358;2023-11-19T09:05:22;89924.13;;;2.01;74.61
76074;BME280;64776;42.636;24.358;2023-11-19T09:08:22;89914.09;;;2.21;74.36
76074;BME280;64776;42.636;24.358;2023-11-19T09:11:23;89928.94;;;2.15;73.82
76074;BME280;64776;42.636;24.358;2023-11-19T09:14:25;89920.69;;;2.04;74.40
76074;BME280;64776;42.636;24.358;2023-11-19T09:17:26;89920.06;;;1.75;76.00
76074;BME280;64776;42.636;24.358;2023-11-19T09:20:27;89907.03;;;1.33;76.04
76074;BME280;64776;42.636;24.358;2023-11-19T09:23:28;89916.81;;;1.71;75.88
76074;BME280;64776;42.636;24.358;2023-11-19T09:26:28;89919.53;;;1.80;77.10
76074;BME280;64776;42.636;24.358;2023-11-19T09:29:33;89923.22;;;1.82;76.20
76074;BME280;64776;42.636;24.358;2023-11-19T09:32:34;89930.41;;;1.56;76.93
76074;BME280;64776;42.636;24.358;2023-11-19T09:35:35;89942.06;;;1.55;78.14
76074;BME280;64776;42.636;24.358;2023-11-19T09:38:35;89950.03;;;1.39;78.29
76074;BME280;64776;42.636;24.358;2023-11-19T09:41:36;89934.38;;;1.48;78.01
76074;BME280;64776;42.636;24.358;2023-11-19T09:44:38;89935.72;;;1.28;78.74
76074;BME280;64776;42.636;24.358;2023-11-19T09:47:40;89942.66;;;1.09;79.49
76074;BME280;64776;42.636;24.358;2023-11-19T09:50:41;89949.84;;;0.93;80.56
76074;BME280;64776;42.636;24.358;2023-11-19T09:53:42;89955.38;;;0.82;80.30
76074;BME280;64776;42.636;24.358;2023-11-19T09:56:43;89948.53;;;0.84;80.59
76074;BME280;64776;42.636;24.358;2023-11-19T09:59:46;89952.81;;;0.95;81.76
76074;BME280;64776;42.636;24.358;2023-11-19T10:02:48;89951.19;;;1.51;79.47
76074;BME280;64776;42.636;24.358;2023-11-19T10:05:50;89941.84;;;1.62;77.87
76074;BME280;64776;42.636;24.358;2023-11-19T10:08:50;89940.47;;;1.71;77.75
76074;BME280;64776;42.636;24.358;2023-11-19T10:11:51;89941.19;;;1.96;78.99
76074;BME280;64776;42.636;24.358;2023-11-19T10:14:56;89931.97;;;2.60;74.33
76074;BME280;64776;42.636;24.358;2023-11-19T10:17:57;89927.84;;;2.93;73.17
76074;BME280;64776;42.636;24.358;2023-11-19T10:20:58;89924.16;;;2.91;71.29
76074;BME280;64776;42.636;24.358;2023-11-19T10:23:59;89922.63;;;2.59;73.23
76074;BME280;64776;42.636;24.358;2023-11-19T10:27:00;89933.63;;;2.45;75.11
76074;BME280;64776;42.636;24.358;2023-11-19T10:30:02;89935.09;;;2.46;75.00
76074;BME280;64776;42.636;24.358;2023-11-19T10:33:04;89935.28;;;2.52;74.87
76074;BME280;64776;42.636;24.358;2023-11-19T10:36:06;89924.25;;;2.44;74.43
76074;BME280;64776;42.636;24.358;2023-11-19T10:39:07;89931.28;;;2.60;73.86
76074;BME280;64776;42.636;24.358;2023-11-19T10:42:15;89927.84;;;2.37;74.82
76074;BME280;64776;42.636;24.358;2023-11-19T10:45:23;89946.28;;;2.37;74.50
76074;BME280;64776;42.636;24.358;2023-11-19T10:56:25;89941.19;;;2.77;76.17
76074;BME280;64776;42.636;24.358;2023-11-19T10:59:31;89944.97;;;2.55;75.37
76074;BME280;64776;42.636;24.358;2023-11-19T11:02:35;89952.84;;;2.20;75.67
76074;BME280;64776;42.636;24.358;2023-11-19T11:05:41;89950.31;;;2.17;77.47
76074;BME280;64776;42.636;24.358;2023-11-19T11:08:43;89942.94;;;2.37;77.06
76074;BME280;64776;42.636;24.358;2023-11-19T11:11:46;89941.84;;;2.69;76.10
76074;BME280;64776;42.636;24.358;2023-11-19T11:14:48;89944.00;;;2.14;74.03
76074;BME280;64776;42.636;24.358;2023-11-19T11:17:55;89947.09;;;1.88;77.20
76074;BME280;64776;42.636;24.358;2023-11-19T11:21:07;89945.38;;;2.06;76.04
76074;BME280;64776;42.636;24.358;2023-11-19T11:24:30;89941.81;;;2.60;75.42
76074;BME280;64776;42.636;24.358;2023-11-19T11:31:15;89950.25;;;2.76;73.84
76074;BME280;64776;42.636;24.358;2023-11-19T11:38:00;89933.94;;;3.03;74.87
76074;BME280;64776;42.636;24.358;2023-11-19T11:41:22;89948.69;;;3.00;71.21
76074;BME280;64776;42.636;24.358;2023-11-19T11:45:00;89933.84;;;3.15;71.54
76074;BME280;64776;42.636;24.358;2023-11-19T11:52:01;89914.97;;;2.95;72.04
76074;BME280;64776;42.636;24.358;2023-11-19T11:55:04;89931.19;;;2.51;74.43
76074;BME280;64776;42.636;24.358;2023-11-19T11:58:05;89932.84;;;2.57;75.77
76074;BME280;64776;42.636;24.358;2023-11-19T12:01:06;89917.66;;;2.61;75.08
76074;BME280;64776;42.636;24.358;2023-11-19T12:04:09;89924.38;;;2.62;74.88
76074;BME280;64776;42.636;24.358;2023-11-19T12:07:14;89916.34;;;2.44;74.76
76074;BME280;64776;42.636;24.358;2023-11-19T12:10:15;89923.63;;;2.40;76.11
76074;BME280;64776;42.636;24.358;2023-11-19T12:13:17;89915.59;;;2.22;76.82
76074;BME280;64776;42.636;24.358;2023-11-19T12:16:17;89914.25;;;1.92;76.13
76074;BME280;64776;42.636;24.358;2023-11-19T12:19:19;89918.28;;;2.31;75.66
76074;BME280;64776;42.636;24.358;2023-11-19T12:22:21;89900.72;;;2.28;75.89
76074;BME280;64776;42.636;24.358;2023-11-19T12:25:25;89913.00;;;1.97;76.90
76074;BME280;64776;42.636;24.358;2023-11-19T12:28:26;89912.38;;;1.93;76.38
76074;BME280;64776;42.636;24.358;2023-11-19T12:31:26;89913.31;;;1.86;77.09
76074;BME280;64776;42.636;24.358;2023-11-19T12:34:27;89905.69;;;2.13;75.39
76074;BME280;64776;42.636;24.358;2023-11-19T12:37:29;89900.28;;;2.29;76.72
76074;BME280;64776;42.636;24.358;2023-11-19T12:40:30;89888.31;;;2.28;74.44
76074;BME280;64776;42.636;24.358;2023-11-19T12:43:31;89906.59;;;2.32;73.74
76074;BME280;64776;42.636;24.358;2023-11-19T12:46:38;89899.91;;;2.18;75.05
76074;BME280;64776;42.636;24.358;2023-11-19T12:49:38;89894.91;;;2.33;75.60
76074;BME280;64776;42.636;24.358;2023-11-19T12:52:41;89892.97;;;2.12;74.97
76074;BME280;64776;42.636;24.358;2023-11-19T12:55:41;89889.25;;;2.22;75.42
76074;BME280;64776;42.636;24.358;2023-11-19T12:58:42;89878.19;;;2.27;73.45
76074;BME280;64776;42.636;24.358;2023-11-19T13:01:54;89880.59;;;2.34;75.13
76074;BME280;64776;42.636;24.358;2023-11-19T13:04:54;89877.41;;;2.05;74.23
76074;BME280;64776;42.636;24.358;2023-11-19T13:08:01;89875.41;;;1.96;75.19
76074;BME280;64776;42.636;24.358;2023-11-19T13:11:02;89879.88;;;2.21;75.07
76074;BME280;64776;42.636;24.358;2023-11-19T13:14:04;89869.34;;;2.21;74.35
76074;BME280;64776;42.636;24.358;2023-11-19T13:17:05;89871.97;;;1.87;75.77
76074;BME280;64776;42.636;24.358;2023-11-19T13:20:06;89864.59;;;1.82;75.35
76074;BME280;64776;42.636;24.358;2023-11-19T13:23:09;89862.53;;;1.77;75.83
76074;BME280;64776;42.636;24.358;2023-11-19T13:26:09;89858.63;;;1.81;76.14
76074;BME280;64776;42.636;24.358;2023-11-19T13:29:10;89854.44;;;2.18;77.35
76074;BME280;64776;42.636;24.358;2023-11-19T13:32:11;89856.72;;;2.50;74.04
76074;BME280;64776;42.636;24.358;2023-11-19T13:35:12;89848.50;;;2.26;73.45
76074;BME280;64776;42.636;24.358;2023-11-19T13:38:14;89853.97;;;1.98;74.87
76074;BME280;64776;42.636;24.358;2023-11-19T13:41:14;89852.56;;;2.06;76.15
76074;BME280;64776;42.636;24.358;2023-11-19T13:44:15;89855.59;;;1.57;75.25
76074;BME280;64776;42.636;24.358;2023-11-19T13:47:16;89846.16;;;1.35;76.86
76074;BME280;64776;42.636;24.358;2023-11-19T13:50:17;89861.88;;;0.84;78.94
76074;BME280;64776;42.636;24.358;2023-11-19T13:53:19;89854.75;;;0.85;79.43
76074;BME280;64776;42.636;24.358;2023-11-19T13:56:20;89848.34;;;0.73;79.99
76074;BME280;64776;42.636;24.358;2023-11-19T13:59:21;89857.13;;;0.54;80.20
76074;BME280;64776;42.636;24.358;2023-11-19T14:02:21;89844.16;;;0.35;80.54
76074;BME280;64776;42.636;24.358;2023-11-19T14:05:22;89842.25;;;0.23;80.69
76074;BME280;64776;42.636;24.358;2023-11-19T14:08:24;89852.91;;;0.16;81.88
76074;BME280;64776;42.636;24.358;2023-11-19T14:11:25;89836.16;;;0.26;81.59
76074;BME280;64776;42.636;24.358;2023-11-19T14:14:26;89855.00;;;0.21;81.89
76074;BME280;64776;42.636;24.358;2023-11-19T14:17:26;89853.16;;;0.05;82.51
76074;BME280;64776;42.636;24.358;2023-11-19T14:20:27;89863.78;;;-0.15;82.96
76074;BME280;64776;42.636;24.358;2023-11-19T14:23:29;89848.66;;;-0.23;82.75
76074;BME280;64776;42.636;24.358;2023-11-19T14:26:30;89856.44;;;-0.36;83.82
76074;BME280;64776;42.636;24.358;2023-11-19T14:29:31;89864.44;;;-0.43;84.40
76074;BME280;64776;42.636;24.358;2023-11-19T14:32:31;89866.94;;;-0.52;85.43
76074;BME280;64776;42.636;24.358;2023-11-19T14:35:32;89877.75;;;-0.50;84.79
76074;BME280;64776;42.636;24.358;2023-11-19T14:38:34;89890.50;;;-0.52;84.89
76074;BME280;64776;42.636;24.358;2023-11-19T14:41:35;89880.94;;;-0.58;84.84
76074;BME280;64776;42.636;24.358;2023-11-19T14:44:36;89874.47;;;-0.54;84.95
76074;BME280;64776;42.636;24.358;2023-11-19T14:47:36;89884.19;;;-0.54;84.47
76074;BME280;64776;42.636;24.358;2023-11-19T14:50:37;89860.72;;;-0.58;83.84
76074;BME280;64776;42.636;24.358;2023-11-19T14:53:39;89849.25;;;-0.48;83.49
76074;BME280;64776;42.636;24.358;2023-11-19T14:56:40;89865.53;;;-0.40;83.16
76074;BME280;64776;42.636;24.358;2023-11-19T14:59:41;89878.88;;;-0.35;81.92
76074;BME280;64776;42.636;24.358;2023-11-19T15:02:41;89863.97;;;-0.38;82.40
76074;BME280;64776;42.636;24.358;2023-11-19T15:05:42;89866.72;;;-0.29;82.11
76074;BME280;64776;42.636;24.358;2023-11-19T15:08:44;89873.78;;;-0.26;81.24
76074;BME280;64776;42.636;24.358;2023-11-19T15:11:45;89883.44;;;-0.23;81.70
76074;BME280;64776;42.636;24.358;2023-11-19T15:14:46;89884.84;;;-0.18;80.92
76074;BME280;64776;42.636;24.358;2023-11-19T15:17:47;89892.38;;;-0.20;81.37
76074;BME280;64776;42.636;24.358;2023-11-19T15:20:47;89896.22;;;-0.25;81.71
76074;BME280;64776;42.636;24.358;2023-11-19T15:23:49;89908.84;;;-0.36;81.66
76074;BME280;64776;42.636;24.358;2023-11-19T15:26:50;89898.03;;;-0.38;81.55
76074;BME280;64776;42.636;24.358;2023-11-19T15:29:51;89882.66;;;-0.36;81.58
76074;BME280;64776;42.636;24.358;2023-11-19T15:32:52;89905.06;;;-0.35;81.59
76074;BME280;64776;42.636;24.358;2023-11-19T15:35:52;89917.38;;;-0.32;80.92
76074;BME280;64776;42.636;24.358;2023-11-19T15:38:54;89908.66;;;-0.29;80.94
76074;BME280;64776;42.636;24.358;2023-11-19T15:41:55;89920.78;;;-0.35;81.01
76074;BME280;64776;42.636;24.358;2023-11-19T15:44:56;89915.00;;;-0.42;81.89
76074;BME280;64776;42.636;24.358;2023-11-19T15:47:57;89931.19;;;-0.47;81.53
76074;BME280;64776;42.636;24.358;2023-11-19T15:50:58;89931.59;;;-0.49;82.67
76074;BME280;64776;42.636;24.358;2023-11-19T15:54:00;89929.16;;;-0.56;82.75
76074;BME280;64776;42.636;24.358;2023-11-19T15:57:01;89941.19;;;-0.58;83.46
76074;BME280;64776;42.636;24.358;2023-11-19T16:00:01;89944.69;;;-0.65;84.01
76074;BME280;64776;42.636;24.358;2023-11-19T16:03:02;89937.56;;;-0.64;83.31
76074;BME280;64776;42.636;24.358;2023-11-19T16:06:03;89937.25;;;-0.66;83.65
76074;BME280;64776;42.636;24.358;2023-11-19T16:09:05;89936.50;;;-0.67;83.32
76074;BME280;64776;42.636;24.358;2023-11-19T16:12:06;89936.34;;;-0.60;83.61
76074;BME280;64776;42.636;24.358;2023-11-19T16:15:08;89933.78;;;-0.63;84.00
76074;BME280;64776;42.636;24.358;2023-11-19T16:18:09;89939.38;;;-0.61;83.46
76074;BME280;64776;42.636;24.358;2023-11-19T16:21:09;89933.00;;;-0.60;83.52
76074;BME280;64776;42.636;24.358;2023-11-19T16:24:12;89936.03;;;-0.62;83.89
76074;BME280;64776;42.636;24.358;2023-11-19T16:27:12;89931.44;;;-0.58;83.92
76074;BME280;64776;42.636;24.358;2023-11-19T16:30:13;89936.94;;;-0.52;83.78
76074;BME280;64776;42.636;24.358;2023-11-19T16:33:14;89947.81;;;-0.54;83.21
76074;BME280;64776;42.636;24.358;2023-11-19T16:36:15;89941.41;;;-0.53;83.04
76074;BME280;64776;42.636;24.358;2023-11-19T16:39:17;89944.88;;;-0.56;82.70
76074;BME280;64776;42.636;24.358;2023-11-19T16:42:18;89937.25;;;-0.50;82.50